Time;durP1;ratioP1;P1;durP2;ratioP2;P2;SDS_P1;SDS_P2;PMS_P1;PMS_P2;Temp;Humidity;BMP_temperature;BMP_pressure;BME280_temperature;BME280_humidity;BME280_pressure;Samples;Min_cycle;Max_cycle;Signal;HPM_P1;HPM_P2
2023/04/21 00:02:06;;;;;;;12.53;10.13;;;9.50;99.90;;;;;;5094156;28;20165;-75
2023/04/21 00:04:32;;;;;;;14.37;10.40;;;9.40;99.90;;;;;;5076555;28;20162;-75
2023/04/21 00:07:00;;;;;;;14.07;10.00;;;9.30;99.90;;;;;;5076101;28;20178;-75
2023/04/21 00:09:26;;;;;;;15.50;10.37;;;9.30;99.90;;;;;;5094426;28;20238;-75
2023/04/21 00:11:52;;;;;;;13.50;9.83;;;9.30;99.90;;;;;;5093931;28;20194;-75
2023/04/21 00:14:18;;;;;;;12.27;9.67;;;9.30;99.90;;;;;;5094315;28;20651;-76
2023/04/21 00:16:43;;;;;;;12.70;9.80;;;9.40;99.90;;;;;;5092586;28;20186;-76
2023/04/21 00:19:09;;;;;;;12.87;9.70;;;9.50;99.90;;;;;;5093828;28;20171;-75
2023/04/21 00:21:35;;;;;;;11.67;9.77;;;9.50;99.90;;;;;;5093525;28;20173;-76
2023/04/21 00:24:02;;;;;;;13.93;10.53;;;9.50;99.90;;;;;;5094142;28;20540;-75
2023/04/21 00:26:27;;;;;;;15.53;10.40;;;9.50;99.90;;;;;;5093848;28;20162;-75
2023/04/21 00:28:53;;;;;;;14.93;9.93;;;9.60;99.90;;;;;;5092450;28;20234;-75
2023/04/21 00:31:18;;;;;;;13.70;10.30;;;9.60;99.90;;;;;;5092350;28;20631;-76
2023/04/21 00:33:44;;;;;;;12.23;9.87;;;9.80;99.90;;;;;;5092615;28;20224;-75
2023/04/21 00:36:10;;;;;;;15.27;10.67;;;9.80;99.90;;;;;;5093901;28;20177;-75
2023/04/21 00:38:37;;;;;;;14.33;10.47;;;9.80;99.90;;;;;;5093817;28;20234;-75
2023/04/21 00:41:03;;;;;;;14.17;10.00;;;9.80;99.90;;;;;;5093245;28;20659;-75
2023/04/21 00:43:29;;;;;;;13.20;10.63;;;9.70;99.90;;;;;;5092016;28;20592;-75
2023/04/21 00:45:54;;;;;;;12.47;10.33;;;9.80;99.90;;;;;;5092543;28;20165;-75
2023/04/21 00:48:20;;;;;;;14.60;11.00;;;9.90;99.90;;;;;;5093011;28;20199;-76
2023/04/21 00:50:46;;;;;;;16.43;10.80;;;10.00;99.90;;;;;;5093628;28;20198;-76
2023/04/21 00:53:13;;;;;;;14.80;10.83;;;10.00;99.90;;;;;;5092477;28;20161;-76
2023/04/21 00:55:39;;;;;;;13.90;11.20;;;10.10;99.90;;;;;;5093904;28;20170;-75
2023/04/21 00:58:05;;;;;;;14.27;11.30;;;10.20;99.90;;;;;;5091650;28;20235;-76
2023/04/21 01:00:30;;;;;;;15.93;11.73;;;10.20;99.90;;;;;;5093426;28;20216;-76
2023/04/21 01:02:58;;;;;;;17.27;13.00;;;10.20;99.90;;;;;;5092173;28;20246;-76
2023/04/21 01:05:25;;;;;;;15.60;13.23;;;10.30;99.90;;;;;;5093772;28;20154;-75
2023/04/21 01:07:51;;;;;;;18.80;13.87;;;10.20;99.90;;;;;;5093811;28;20243;-75
2023/04/21 01:10:17;;;;;;;18.17;13.87;;;10.20;99.90;;;;;;5092934;28;20182;-77
2023/04/21 01:12:46;;;;;;;17.03;13.93;;;10.10;99.90;;;;;;5092948;28;20162;-76
2023/04/21 01:15:16;;;;;;;18.63;15.33;;;10.00;99.90;;;;;;5093046;28;20180;-76
2023/04/21 01:17:42;;;;;;;19.37;15.47;;;10.00;99.90;;;;;;5075195;28;20163;-77
2023/04/21 01:20:11;;;;;;;20.03;15.40;;;9.90;99.90;;;;;;5075071;28;20255;-77
2023/04/21 01:22:37;;;;;;;21.37;15.80;;;9.80;99.90;;;;;;5075373;28;20175;-76
2023/04/21 01:25:03;;;;;;;20.53;15.70;;;9.80;99.90;;;;;;5075119;28;20696;-76
2023/04/21 01:27:29;;;;;;;20.43;16.57;;;9.90;99.90;;;;;;5078546;28;20194;-77
2023/04/21 01:29:55;;;;;;;21.20;16.33;;;9.90;99.90;;;;;;5093402;28;20244;-77
2023/04/21 01:32:27;;;;;;;21.07;16.57;;;9.80;99.90;;;;;;5091000;28;20190;-77
2023/04/21 01:34:54;;;;;;;22.40;17.03;;;9.70;99.90;;;;;;5091885;28;20167;-76
2023/04/21 01:37:23;;;;;;;21.13;17.17;;;9.70;99.90;;;;;;5091556;28;20287;-77
2023/04/21 01:39:53;;;;;;;22.17;16.83;;;9.70;99.90;;;;;;5091207;28;20206;-77
2023/04/21 01:42:20;;;;;;;21.93;18.07;;;9.70;99.90;;;;;;5054415;28;20174;-76
2023/04/21 01:44:46;;;;;;;23.67;18.30;;;9.80;99.90;;;;;;5064672;28;20254;-77
2023/04/21 01:47:12;;;;;;;24.10;19.37;;;9.70;99.90;;;;;;5075007;28;20193;-77
2023/04/21 01:49:38;;;;;;;24.67;18.67;;;9.60;99.90;;;;;;5074599;28;20223;-77
2023/04/21 01:52:04;;;;;;;26.00;19.30;;;9.60;99.90;;;;;;5074823;28;20166;-77
2023/04/21 01:54:30;;;;;;;26.03;19.87;;;9.50;99.90;;;;;;5074550;28;20495;-77
2023/04/21 01:56:57;;;;;;;26.43;19.73;;;9.60;99.90;;;;;;5074638;28;20207;-77
2023/04/21 01:59:23;;;;;;;27.67;21.03;;;9.60;99.90;;;;;;5074177;28;20215;-77
2023/04/21 02:01:48;;;;;;;27.23;20.37;;;9.60;99.90;;;;;;5074705;28;20174;-77
2023/04/21 02:04:14;;;;;;;27.77;21.10;;;9.60;99.90;;;;;;5074514;28;20170;-78
2023/04/21 02:06:40;;;;;;;29.00;21.20;;;9.50;99.90;;;;;;5074213;28;20186;-77
2023/04/21 02:09:06;;;;;;;28.40;21.50;;;9.60;99.90;;;;;;5092603;28;20630;-77
2023/04/21 02:11:31;;;;;;;28.77;20.83;;;9.60;99.90;;;;;;5074335;28;20171;-77
2023/04/21 02:13:57;;;;;;;27.57;21.67;;;9.60;99.90;;;;;;5074341;28;20282;-77
2023/04/21 02:16:26;;;;;;;28.53;21.53;;;9.60;99.90;;;;;;5092707;28;20157;-77
2023/04/21 02:18:53;;;;;;;28.70;20.93;;;9.60;99.90;;;;;;5074052;28;20249;-77
2023/04/21 02:21:22;;;;;;;28.87;21.33;;;9.60;99.90;;;;;;5092564;28;20167;-76
2023/04/21 02:23:48;;;;;;;27.73;20.97;;;9.50;99.90;;;;;;5092042;28;20175;-77
2023/04/21 02:26:14;;;;;;;30.97;22.80;;;9.60;99.90;;;;;;5092359;28;20175;-77
2023/04/21 02:28:41;;;;;;;29.33;21.50;;;9.60;99.90;;;;;;5074137;28;20202;-75
2023/04/21 02:31:07;;;;;;;30.20;22.13;;;9.50;99.90;;;;;;5092581;28;20276;-77
2023/04/21 02:33:32;;;;;;;29.47;23.17;;;9.50;99.90;;;;;;5074139;28;20265;-77
2023/04/21 02:35:58;;;;;;;32.17;22.87;;;9.50;99.90;;;;;;5092032;28;20179;-77
2023/04/21 02:38:24;;;;;;;31.37;23.20;;;9.60;99.90;;;;;;5074270;28;20198;-77
2023/04/21 02:40:49;;;;;;;31.30;24.20;;;9.80;99.90;;;;;;5074147;28;20206;-76
2023/04/21 02:43:16;;;;;;;34.90;23.93;;;9.80;99.90;;;;;;5074697;28;20552;-76
2023/04/21 02:45:42;;;;;;;32.57;24.13;;;9.70;99.90;;;;;;5078143;28;20215;-76
2023/04/21 02:48:08;;;;;;;31.73;23.43;;;9.60;99.90;;;;;;5078314;28;20195;-76
2023/04/21 02:50:34;;;;;;;33.03;23.83;;;9.50;99.90;;;;;;5078087;28;20305;-77
2023/04/21 02:53:00;;;;;;;34.27;24.93;;;9.50;99.90;;;;;;5096263;28;20171;-77
2023/04/21 02:55:25;;;;;;;35.80;25.73;;;9.50;99.90;;;;;;5096348;28;20168;-75
2023/04/21 02:57:52;;;;;;;32.43;24.27;;;9.40;99.90;;;;;;5095262;28;20175;-75
2023/04/21 03:00:19;;;;;;;35.80;26.20;;;9.40;99.90;;;;;;5094196;28;20178;-76
2023/04/21 03:02:45;;;;;;;32.07;23.53;;;9.40;99.90;;;;;;5095672;28;20238;-75
2023/04/21 03:05:11;;;;;;;37.90;25.40;;;9.40;99.90;;;;;;5094100;28;20607;-75
2023/04/21 03:07:37;;;;;;;31.67;23.67;;;9.40;99.90;;;;;;5094337;28;20281;-75
2023/04/21 03:10:05;;;;;;;35.60;25.00;;;9.50;99.90;;;;;;5093865;28;20210;-77
2023/04/21 03:12:31;;;;;;;34.30;25.10;;;9.60;99.90;;;;;;5093878;28;20175;-76
2023/04/21 03:14:57;;;;;;;36.90;26.43;;;9.50;99.90;;;;;;5095135;28;20289;-76
2023/04/21 03:17:23;;;;;;;34.47;24.83;;;9.60;99.90;;;;;;5095351;28;20239;-75
2023/04/21 03:19:49;;;;;;;36.13;26.53;;;9.50;99.90;;;;;;5093896;28;20631;-76
2023/04/21 03:22:15;;;;;;;36.13;26.47;;;9.60;99.90;;;;;;5094102;28;20170;-76
2023/04/21 03:24:41;;;;;;;36.40;26.90;;;9.60;99.90;;;;;;5093460;28;20162;-76
2023/04/21 03:27:06;;;;;;;38.33;26.53;;;9.80;99.90;;;;;;5093371;28;20174;-76
2023/04/21 03:29:35;;;;;;;40.27;27.17;;;9.80;99.90;;;;;;5095355;28;20171;-76
2023/04/21 03:32:00;;;;;;;37.40;25.93;;;9.80;99.90;;;;;;5094786;28;20546;-76
2023/04/21 03:34:26;;;;;;;37.87;27.27;;;9.70;99.90;;;;;;5095424;28;20170;-76
2023/04/21 03:36:52;;;;;;;38.70;27.67;;;9.70;99.90;;;;;;5096114;28;20178;-75
2023/04/21 03:39:17;;;;;;;35.63;26.33;;;9.70;99.90;;;;;;5094199;28;20540;-75
2023/04/21 03:41:43;;;;;;;36.93;27.07;;;9.70;99.90;;;;;;5094526;28;20539;-75
2023/04/21 03:44:10;;;;;;;36.47;26.30;;;9.70;99.90;;;;;;5093704;28;20167;-76
2023/04/21 03:46:38;;;;;;;37.60;25.30;;;9.50;99.90;;;;;;5093404;28;20265;-76
2023/04/21 03:49:04;;;;;;;36.07;26.47;;;9.30;99.90;;;;;;5093619;28;20631;-76
2023/04/21 03:51:31;;;;;;;37.23;27.03;;;9.40;99.90;;;;;;5093733;28;20167;-76
2023/04/21 03:53:57;;;;;;;36.60;26.30;;;9.50;99.90;;;;;;5094755;28;20166;-77
2023/04/21 03:56:24;;;;;;;38.03;27.80;;;9.60;99.90;;;;;;5092744;28;20198;-77
2023/04/21 03:58:51;;;;;;;39.10;28.13;;;9.60;99.90;;;;;;5093144;28;20186;-76
2023/04/21 04:01:17;;;;;;;38.97;27.73;;;9.50;99.90;;;;;;5093084;28;20184;-77
2023/04/21 04:03:42;;;;;;;41.77;29.37;;;9.50;99.90;;;;;;5094557;28;20241;-76
2023/04/21 04:06:08;;;;;;;39.33;27.60;;;9.50;99.90;;;;;;5093226;28;20672;-76
2023/04/21 04:08:34;;;;;;;39.33;27.93;;;9.50;99.90;;;;;;5093437;28;20202;-80
2023/04/21 04:10:59;;;;;;;38.27;27.40;;;9.30;99.90;;;;;;5093555;28;20184;-81
2023/04/21 04:13:26;;;;;;;43.57;29.43;;;9.30;99.90;;;;;;5094686;28;20213;-81
2023/04/21 04:15:52;;;;;;;38.43;28.30;;;9.30;99.90;;;;;;5093252;28;20183;-79
2023/04/21 04:18:18;;;;;;;38.87;28.23;;;9.20;99.90;;;;;;5095204;28;20189;-79
2023/04/21 04:20:43;;;;;;;40.63;28.50;;;9.00;99.90;;;;;;5092580;28;20182;-79
2023/04/21 04:23:10;;;;;;;44.37;29.17;;;9.10;99.90;;;;;;5092976;28;20178;-78
2023/04/21 04:25:36;;;;;;;43.20;28.87;;;9.30;99.90;;;;;;5093168;28;20175;-79
2023/04/21 04:28:01;;;;;;;43.23;30.13;;;9.40;99.90;;;;;;5093834;28;20202;-79
2023/04/21 04:30:28;;;;;;;41.63;29.67;;;9.40;99.90;;;;;;5076332;28;20212;-79
2023/04/21 04:32:56;;;;;;;41.83;29.70;;;9.30;99.90;;;;;;5076112;28;20166;-79
2023/04/21 04:35:22;;;;;;;42.97;30.00;;;9.40;99.90;;;;;;5076146;28;20556;-80
2023/04/21 04:37:48;;;;;;;43.83;29.33;;;9.40;99.90;;;;;;5075987;28;20171;-79
2023/04/21 04:40:14;;;;;;;39.83;27.90;;;9.50;99.90;;;;;;5075709;28;20182;-76
2023/04/21 04:42:41;;;;;;;37.50;27.53;;;9.40;99.90;;;;;;5075557;28;20181;-76
2023/04/21 04:45:07;;;;;;;42.07;30.00;;;9.40;99.90;;;;;;5093584;28;20155;-78
2023/04/21 04:47:36;;;;;;;40.57;28.93;;;9.40;99.90;;;;;;5093990;28;20198;-77
2023/04/21 04:50:02;;;;;;;36.03;26.07;;;9.40;99.90;;;;;;5092744;28;20170;-76
2023/04/21 04:52:29;;;;;;;39.70;27.20;;;9.30;99.90;;;;;;5075428;28;20624;-77
2023/04/21 04:54:54;;;;;;;41.83;28.00;;;9.30;99.90;;;;;;5075731;28;20167;-77
2023/04/21 04:57:20;;;;;;;39.97;29.00;;;9.20;99.90;;;;;;5093433;28;20165;-76
2023/04/21 04:59:48;;;;;;;38.63;27.63;;;9.40;99.90;;;;;;5074957;28;20163;-78
2023/04/21 05:02:14;;;;;;;42.87;28.53;;;9.50;99.90;;;;;;5075636;28;20171;-77
2023/04/21 05:04:41;;;;;;;40.50;28.83;;;9.40;99.90;;;;;;5074984;28;20177;-77
2023/04/21 05:07:07;;;;;;;39.97;27.87;;;9.40;99.90;;;;;;5093537;28;20174;-76
2023/04/21 05:09:34;;;;;;;39.43;27.37;;;9.50;99.90;;;;;;5075362;28;20169;-77
2023/04/21 05:12:00;;;;;;;35.23;25.83;;;9.60;99.90;;;;;;5075441;28;20170;-76
2023/04/21 05:14:26;;;;;;;38.40;27.87;;;9.50;99.90;;;;;;5075097;28;20285;-76
2023/04/21 05:16:52;;;;;;;37.80;26.93;;;9.50;99.90;;;;;;5093521;28;20705;-77
2023/04/21 05:19:18;;;;;;;36.20;24.90;;;9.50;99.90;;;;;;5074998;28;20188;-76
2023/04/21 05:21:49;;;;;;;35.10;25.17;;;9.50;99.90;;;;;;5093624;28;20204;-77
2023/04/21 05:24:23;;;;;;;33.77;24.27;;;9.60;99.90;;;;;;5075459;28;20256;-76
2023/04/21 05:27:01;;;;;;;33.47;24.37;;;9.80;99.90;;;;;;5075629;28;20198;-76
2023/04/21 05:29:30;;;;;;;34.63;25.13;;;9.90;99.90;;;;;;5083603;28;20190;-77
2023/04/21 05:31:57;;;;;;;32.53;23.77;;;10.00;99.90;;;;;;5088398;28;20590;-77
2023/04/21 05:34:25;;;;;;;33.07;23.60;;;9.90;99.90;;;;;;5073219;28;20194;-77
2023/04/21 05:36:53;;;;;;;33.33;23.97;;;9.70;99.90;;;;;;5091370;28;20171;-75
2023/04/21 05:39:20;;;;;;;29.17;22.10;;;9.70;99.90;;;;;;5092886;28;20170;-76
2023/04/21 05:41:47;;;;;;;31.67;21.73;;;9.50;99.90;;;;;;5075262;28;20653;-77
2023/04/21 05:44:15;;;;;;;37.03;24.93;;;9.40;99.90;;;;;;5075119;28;20670;-76
2023/04/21 05:46:53;;;;;;;31.60;23.37;;;9.40;99.90;;;;;;5076234;28;20657;-78
2023/04/21 05:49:21;;;;;;;33.20;23.37;;;9.60;99.90;;;;;;5093690;28;20189;-77
2023/04/21 05:51:49;;;;;;;33.13;22.67;;;9.50;99.90;;;;;;5075154;28;20181;-79
2023/04/21 05:54:15;;;;;;;32.57;23.00;;;9.50;99.90;;;;;;5074486;28;20174;-77
2023/04/21 05:56:41;;;;;;;35.93;24.20;;;9.40;99.90;;;;;;5077851;28;20175;-78
2023/04/21 05:59:06;;;;;;;31.73;23.67;;;9.50;99.90;;;;;;5085439;28;20173;-76
2023/04/21 06:01:32;;;;;;;32.27;22.50;;;9.40;99.90;;;;;;5076315;28;20702;-76
2023/04/21 06:03:58;;;;;;;31.53;22.37;;;9.40;99.90;;;;;;5073638;28;20182;-77
2023/04/21 06:06:26;;;;;;;31.73;22.37;;;9.40;99.90;;;;;;5101536;28;20643;-77
2023/04/21 06:08:51;;;;;;;29.67;21.67;;;9.30;99.90;;;;;;5085765;28;20216;-77
2023/04/21 06:11:17;;;;;;;28.73;21.47;;;9.30;99.90;;;;;;5091289;28;20262;-76
2023/04/21 06:13:43;;;;;;;27.67;21.07;;;9.30;99.90;;;;;;5094291;28;20212;-76
2023/04/21 06:16:10;;;;;;;30.33;21.63;;;9.40;99.90;;;;;;5094066;28;20543;-76
2023/04/21 06:18:36;;;;;;;32.87;21.90;;;9.50;99.90;;;;;;5062448;28;20182;-77
2023/04/21 06:21:02;;;;;;;29.97;21.67;;;9.50;99.90;;;;;;5078307;28;20182;-77
2023/04/21 06:23:27;;;;;;;28.77;21.10;;;9.30;99.90;;;;;;5080966;28;20179;-76
2023/04/21 06:26:05;;;;;;;29.30;21.57;;;9.40;99.90;;;;;;5089813;28;20167;-77
2023/04/21 06:28:33;;;;;;;29.57;21.10;;;9.50;99.90;;;;;;5097121;28;20592;-76
2023/04/21 06:31:00;;;;;;;30.73;21.80;;;9.50;99.90;;;;;;5096953;28;20577;-76
2023/04/21 06:33:26;;;;;;;28.23;20.73;;;9.60;99.90;;;;;;5116658;28;20176;-76
2023/04/21 06:35:52;;;;;;;28.40;20.63;;;9.60;99.90;;;;;;5094194;28;20154;-77
2023/04/21 06:38:19;;;;;;;28.10;19.47;;;9.70;99.90;;;;;;5078196;28;20206;-75
2023/04/21 06:40:44;;;;;;;30.40;20.93;;;9.60;99.90;;;;;;5078067;28;20262;-77
2023/04/21 06:43:11;;;;;;;27.87;20.47;;;9.50;99.90;;;;;;5078379;28;20270;-76
2023/04/21 06:45:36;;;;;;;25.57;18.87;;;9.60;99.90;;;;;;5096106;28;20178;-77
2023/04/21 06:48:04;;;;;;;27.97;19.67;;;9.60;99.90;;;;;;5077799;28;20198;-76
2023/04/21 06:50:30;;;;;;;27.20;18.47;;;9.70;99.90;;;;;;5078091;28;20247;-76
2023/04/21 06:52:56;;;;;;;24.53;18.27;;;9.90;99.90;;;;;;5078189;28;20612;-78
2023/04/21 06:55:22;;;;;;;23.90;18.30;;;10.00;99.90;;;;;;5077858;28;20155;-76
2023/04/21 06:57:47;;;;;;;24.43;18.00;;;10.00;99.90;;;;;;5077982;28;20166;-77
2023/04/21 07:00:13;;;;;;;21.93;17.20;;;9.90;99.90;;;;;;5078243;28;20167;-77
2023/04/21 07:02:40;;;;;;;22.73;17.60;;;9.90;99.90;;;;;;5077577;28;20531;-76
2023/04/21 07:05:06;;;;;;;24.43;17.77;;;10.00;99.90;;;;;;5077979;28;20164;-76
2023/04/21 07:07:32;;;;;;;25.03;18.87;;;10.10;99.90;;;;;;5077823;28;20155;-77
2023/04/21 07:09:58;;;;;;;23.27;17.90;;;10.40;99.90;;;;;;5077632;28;20166;-76
2023/04/21 07:12:24;;;;;;;24.10;18.17;;;10.50;99.90;;;;;;5077913;28;20183;-76
2023/04/21 07:14:49;;;;;;;24.30;18.30;;;10.40;99.90;;;;;;5078307;28;20327;-76
2023/04/21 07:17:15;;;;;;;21.40;16.87;;;10.40;99.90;;;;;;5077962;28;20259;-77
2023/04/21 07:19:41;;;;;;;25.43;18.87;;;10.30;99.90;;;;;;5077574;28;20170;-77
2023/04/21 07:22:06;;;;;;;24.10;16.60;;;10.50;99.90;;;;;;5077515;28;20159;-76
2023/04/21 07:24:34;;;;;;;23.63;16.43;;;10.60;99.90;;;;;;5077745;28;20228;-76
2023/04/21 07:27:01;;;;;;;21.03;16.33;;;10.60;99.90;;;;;;5077615;28;20232;-77
2023/04/21 07:29:27;;;;;;;21.27;16.40;;;10.60;99.90;;;;;;5076811;28;20207;-76
2023/04/21 07:31:55;;;;;;;21.03;16.13;;;10.60;99.90;;;;;;5076489;28;20191;-76
2023/04/21 07:34:21;;;;;;;22.03;15.90;;;10.70;99.90;;;;;;5077531;28;20169;-76
2023/04/21 07:36:46;;;;;;;21.43;15.53;;;10.90;99.90;;;;;;5076914;28;20239;-77
2023/04/21 07:39:12;;;;;;;22.77;15.37;;;11.00;99.90;;;;;;5077110;28;20267;-76
2023/04/21 07:41:39;;;;;;;19.73;15.33;;;11.10;99.90;;;;;;5076972;28;20258;-75
2023/04/21 07:44:05;;;;;;;20.93;14.70;;;11.30;99.90;;;;;;5076846;28;20534;-76
2023/04/21 07:46:32;;;;;;;17.43;13.83;;;11.30;99.90;;;;;;5095161;28;20160;-77
2023/04/21 07:48:59;;;;;;;18.07;13.73;;;11.30;99.90;;;;;;5077269;28;20853;-76
2023/04/21 07:51:26;;;;;;;18.70;14.27;;;11.30;99.90;;;;;;5077170;28;20159;-77
2023/04/21 07:53:52;;;;;;;18.27;13.57;;;11.30;99.90;;;;;;5076882;28;20161;-77
2023/04/21 07:56:18;;;;;;;17.33;12.97;;;11.50;99.90;;;;;;5094868;28;20540;-75
2023/04/21 07:58:45;;;;;;;18.13;12.80;;;11.40;99.90;;;;;;5076601;28;20172;-75
2023/04/21 08:01:12;;;;;;;14.00;11.53;;;11.50;99.90;;;;;;5076456;28;20181;-76
2023/04/21 08:03:38;;;;;;;15.63;11.93;;;11.60;99.90;;;;;;5076799;28;20167;-76
2023/04/21 08:06:04;;;;;;;15.90;12.20;;;11.80;99.90;;;;;;5076627;28;20165;-75
2023/04/21 08:08:30;;;;;;;15.13;11.93;;;12.00;99.90;;;;;;5076483;28;20200;-76
2023/04/21 08:10:55;;;;;;;14.60;11.93;;;12.20;99.90;;;;;;5076723;28;20222;-76
2023/04/21 08:13:24;;;;;;;14.37;11.10;;;12.40;99.90;;;;;;5076367;28;20223;-76
2023/04/21 08:15:51;;;;;;;14.73;11.10;;;12.30;99.90;;;;;;5076431;28;20299;-77
2023/04/21 08:18:17;;;;;;;14.13;11.07;;;12.40;99.90;;;;;;5076543;28;20166;-76
2023/04/21 08:20:46;;;;;;;14.47;11.10;;;12.60;99.90;;;;;;5076421;28;20179;-75
2023/04/21 08:23:13;;;;;;;16.63;10.80;;;12.80;99.90;;;;;;5076151;28;20167;-76
2023/04/21 08:25:38;;;;;;;13.23;10.50;;;12.90;99.90;;;;;;5076418;28;20632;-75
2023/04/21 08:28:04;;;;;;;12.43;9.90;;;12.90;99.90;;;;;;5075717;28;20307;-76
2023/04/21 08:30:30;;;;;;;13.20;10.77;;;13.10;99.90;;;;;;5075908;28;20166;-76
2023/04/21 08:32:58;;;;;;;14.07;11.43;;;13.10;99.90;;;;;;5075867;28;20162;-75
2023/04/21 08:35:25;;;;;;;13.40;10.30;;;13.20;99.90;;;;;;5076179;28;20178;-75
2023/04/21 08:37:51;;;;;;;12.20;10.43;;;13.10;99.90;;;;;;5075477;28;20167;-76
2023/04/21 08:40:17;;;;;;;13.27;10.50;;;13.20;99.90;;;;;;5094062;28;20178;-77
2023/04/21 08:42:44;;;;;;;12.53;10.20;;;13.30;99.90;;;;;;5075273;28;20548;-76
2023/04/21 08:45:10;;;;;;;12.93;10.00;;;13.30;99.90;;;;;;5075572;28;20258;-76
2023/04/21 08:47:39;;;;;;;15.97;10.47;;;13.30;99.90;;;;;;5093819;28;20190;-77
2023/04/21 08:50:07;;;;;;;13.93;11.30;;;13.30;99.90;;;;;;5075473;28;20187;-76
2023/04/21 08:52:33;;;;;;;15.53;11.97;;;13.30;99.90;;;;;;5093652;28;20155;-76
2023/04/21 08:55:00;;;;;;;12.53;10.13;;;13.20;99.90;;;;;;5075701;28;20661;-76
2023/04/21 08:57:25;;;;;;;13.87;10.90;;;13.30;99.90;;;;;;5075507;28;20539;-77
2023/04/21 08:59:53;;;;;;;12.50;10.03;;;13.30;99.90;;;;;;5075489;28;20162;-76
2023/04/21 09:02:19;;;;;;;15.70;10.33;;;13.30;99.90;;;;;;5075134;28;20603;-76
2023/04/21 09:04:47;;;;;;;13.93;11.57;;;13.30;99.90;;;;;;5075395;28;20178;-76
2023/04/21 09:07:31;;;;;;;16.87;11.43;;;13.40;99.90;;;;;;5093097;28;20626;-76
2023/04/21 09:09:57;;;;;;;14.63;10.83;;;13.70;99.90;;;;;;5074967;28;20205;-76
2023/04/21 09:12:23;;;;;;;12.73;10.60;;;13.50;99.90;;;;;;5091852;28;20447;-76
2023/04/21 09:14:50;;;;;;;18.90;10.73;;;13.50;99.90;;;;;;5074828;28;20542;-76
2023/04/21 09:17:17;;;;;;;13.33;10.77;;;13.60;99.90;;;;;;5074996;28;20159;-75
2023/04/21 09:19:44;;;;;;;13.50;9.77;;;13.50;99.90;;;;;;5075052;28;20502;-76
2023/04/21 09:22:14;;;;;;;13.40;10.83;;;13.50;99.90;;;;;;5074861;28;20162;-76
2023/04/21 09:24:48;;;;;;;13.90;11.20;;;13.60;99.90;;;;;;5093149;28;20198;-76
2023/04/21 09:27:20;;;;;;;12.67;10.00;;;13.50;99.90;;;;;;5074629;28;20632;-77
2023/04/21 09:29:47;;;;;;;12.37;10.27;;;13.50;99.90;;;;;;5074821;28;20189;-76
2023/04/21 09:32:17;;;;;;;13.93;10.67;;;13.60;99.90;;;;;;5075193;28;20174;-75
2023/04/21 09:34:43;;;;;;;12.50;9.83;;;13.90;99.90;;;;;;5074964;28;20575;-76
2023/04/21 09:37:10;;;;;;;13.73;10.70;;;13.90;99.90;;;;;;5092935;28;20163;-75
2023/04/21 09:39:36;;;;;;;12.00;10.50;;;14.20;99.90;;;;;;5074655;28;20182;-75
2023/04/21 09:42:02;;;;;;;13.27;10.17;;;14.20;99.90;;;;;;5074882;28;20170;-76
2023/04/21 09:44:27;;;;;;;14.87;9.47;;;14.20;99.90;;;;;;5074898;28;20200;-76
2023/04/21 09:47:00;;;;;;;12.27;8.73;;;14.00;99.90;;;;;;5091287;28;20174;-75
2023/04/21 09:49:29;;;;;;;12.27;9.90;;;13.80;99.90;;;;;;5092722;28;20198;-75
2023/04/21 09:51:59;;;;;;;13.60;10.47;;;13.80;99.90;;;;;;5074714;28;20194;-75
2023/04/21 09:54:31;;;;;;;12.23;9.30;;;13.90;99.90;;;;;;5090408;28;20213;-76
2023/04/21 09:57:02;;;;;;;11.87;8.93;;;13.90;99.90;;;;;;5074351;28;20201;-75
2023/04/21 09:59:36;;;;;;;12.13;9.53;;;14.00;99.90;;;;;;5074536;28;20189;-76
2023/04/21 10:02:06;;;;;;;12.67;10.10;;;14.20;99.90;;;;;;5092764;28;20256;-76
2023/04/21 10:04:33;;;;;;;11.73;8.53;;;14.40;99.90;;;;;;5092770;28;20198;-76
2023/04/21 10:07:00;;;;;;;17.27;8.93;;;14.50;99.90;;;;;;5074161;28;20197;-76
2023/04/21 10:09:46;;;;;;;10.17;7.97;;;14.50;99.90;;;;;;5074289;28;20199;-75
2023/04/21 10:12:12;;;;;;;10.80;9.07;;;14.40;99.90;;;;;;5074533;28;20219;-76
2023/04/21 10:14:40;;;;;;;12.57;9.93;;;14.40;99.90;;;;;;5074424;28;20186;-76
2023/04/21 10:17:08;;;;;;;11.43;9.60;;;14.40;99.90;;;;;;5075424;28;20529;-76
2023/04/21 10:19:38;;;;;;;11.27;9.40;;;14.50;99.90;;;;;;5075355;28;20194;-77
2023/04/21 10:22:11;;;;;;;11.17;9.37;;;14.40;99.90;;;;;;5075127;28;20671;-76
2023/04/21 10:24:41;;;;;;;11.67;8.80;;;14.70;99.90;;;;;;5074629;28;20162;-75
2023/04/21 10:27:11;;;;;;;9.97;8.67;;;14.80;99.90;;;;;;5075077;28;20196;-76
2023/04/21 10:29:37;;;;;;;10.70;8.70;;;14.80;99.90;;;;;;5074273;28;20217;-77
2023/04/21 10:32:03;;;;;;;10.63;8.70;;;14.80;99.90;;;;;;5074203;28;20208;-76
2023/04/21 10:34:35;;;;;;;11.07;8.53;;;14.90;99.90;;;;;;5091068;28;20223;-77
2023/04/21 10:37:04;;;;;;;9.60;8.20;;;15.00;99.90;;;;;;5074308;28;20245;-76
2023/04/21 10:39:35;;;;;;;10.27;7.90;;;15.00;99.90;;;;;;5073949;28;20251;-76
2023/04/21 10:42:15;;;;;;;10.23;8.50;;;15.10;99.90;;;;;;5071033;28;20245;-76
2023/04/21 10:45:04;;;;;;;11.97;8.57;;;15.30;99.90;;;;;;5065778;28;20205;-75
2023/04/21 10:47:42;;;;;;;8.87;7.10;;;15.50;99.90;;;;;;5066425;28;20629;-75
2023/04/21 10:50:30;;;;;;;12.07;8.23;;;15.70;99.90;;;;;;5066164;28;20599;-74
2023/04/21 10:53:11;;;;;;;8.50;7.33;;;16.00;99.90;;;;;;5070107;28;20233;-76
2023/04/21 10:55:37;;;;;;;9.37;6.47;;;15.90;98.70;;;;;;5052624;28;20632;-77
2023/04/21 10:58:06;;;;;;;8.87;7.77;;;15.80;99.60;;;;;;5071888;28;20162;-77
2023/04/21 11:00:32;;;;;;;9.67;7.57;;;16.20;98.90;;;;;;5069985;28;20186;-77
2023/04/21 11:03:03;;;;;;;8.50;7.30;;;16.60;98.40;;;;;;5072115;28;20457;-77
2023/04/21 11:05:30;;;;;;;9.50;7.57;;;16.50;97.40;;;;;;5074520;28;20644;-78
2023/04/21 11:08:07;;;;;;;9.87;8.07;;;16.50;97.30;;;;;;5074055;28;20254;-77
2023/04/21 11:10:53;;;;;;;8.80;7.77;;;16.70;97.30;;;;;;5075843;28;20636;-76
2023/04/21 11:13:32;;;;;;;11.33;7.27;;;16.70;96.90;;;;;;5057618;28;20236;-78
2023/04/21 11:16:16;;;;;;;10.27;7.07;;;17.00;96.40;;;;;;5057204;28;20209;-77
2023/04/21 11:18:43;;;;;;;9.03;7.40;;;17.10;96.10;;;;;;5057234;28;20529;-78
2023/04/21 11:21:14;;;;;;;7.90;6.70;;;17.00;95.80;;;;;;5075072;28;20162;-78
2023/04/21 11:23:46;;;;;;;8.43;6.10;;;17.20;95.10;;;;;;5056890;28;20202;-78
2023/04/21 11:26:12;;;;;;;8.47;7.30;;;17.50;93.90;;;;;;5057085;28;20179;-77
2023/04/21 11:28:40;;;;;;;9.03;6.80;;;17.60;93.80;;;;;;5057130;28;20185;-78
2023/04/21 11:31:06;;;;;;;9.40;7.47;;;17.70;94.10;;;;;;5057190;28;20173;-77
2023/04/21 11:33:37;;;;;;;10.27;7.73;;;17.90;94.10;;;;;;5075044;28;20511;-78
2023/04/21 11:36:07;;;;;;;8.17;6.97;;;18.10;93.80;;;;;;5056912;28;20174;-77
2023/04/21 11:38:40;;;;;;;9.03;7.60;;;18.50;93.30;;;;;;5056679;28;20179;-78
2023/04/21 11:41:06;;;;;;;13.27;8.20;;;19.00;93.00;;;;;;5074623;28;20172;-77
2023/04/21 11:43:32;;;;;;;10.07;6.60;;;19.10;92.50;;;;;;5056619;28;20225;-78
2023/04/21 11:46:22;;;;;;;7.70;6.87;;;19.60;90.50;;;;;;5074661;28;20163;-78
2023/04/21 11:49:01;;;;;;;9.30;7.43;;;19.80;90.00;;;;;;5056822;28;20268;-76
2023/04/21 11:51:32;;;;;;;9.33;7.43;;;19.70;90.80;;;;;;5075176;28;20162;-80
2023/04/21 11:53:58;;;;;;;10.00;7.50;;;20.70;90.00;;;;;;5057574;28;20172;-82
2023/04/21 11:56:29;;;;;;;8.63;7.53;;;20.80;87.60;;;;;;5075131;28;20175;-81
2023/04/21 11:58:57;;;;;;;10.03;6.90;;;21.20;86.90;;;;;;5057821;28;20167;-81
2023/04/21 12:01:22;;;;;;;7.60;6.33;;;21.50;83.70;;;;;;5074667;28;20635;-80
2023/04/21 12:03:55;;;;;;;8.27;6.37;;;21.60;81.70;;;;;;5057382;28;20171;-81
2023/04/21 12:06:28;;;;;;;7.77;6.30;;;21.50;80.50;;;;;;5057543;28;20182;-81
2023/04/21 12:09:03;;;;;;;11.90;7.30;;;21.60;79.50;;;;;;5075775;28;20285;-80
2023/04/21 12:11:31;;;;;;;8.13;6.70;;;22.20;79.20;;;;;;5074697;28;20173;-81
2023/04/21 12:14:08;;;;;;;7.30;6.10;;;22.30;78.70;;;;;;5075900;28;20170;-81
2023/04/21 12:16:36;;;;;;;7.40;6.00;;;22.40;77.90;;;;;;5057319;28;20563;-81
2023/04/21 12:19:04;;;;;;;10.63;6.27;;;23.00;75.60;;;;;;5057990;28;20212;-81
2023/04/21 12:21:30;;;;;;;8.30;6.57;;;23.40;73.60;;;;;;5074083;28;20530;-82
2023/04/21 12:23:58;;;;;;;7.83;6.60;;;23.50;73.40;;;;;;5057469;28;20163;-81
2023/04/21 12:26:23;;;;;;;10.20;6.00;;;23.60;73.90;;;;;;5057377;28;20159;-80
2023/04/21 12:28:50;;;;;;;5.90;5.17;;;23.80;69.40;;;;;;5074440;28;20714;-80
2023/04/21 12:31:18;;;;;;;5.93;5.00;;;24.30;65.90;;;;;;5056876;28;20221;-82
2023/04/21 12:33:44;;;;;;;5.83;5.23;;;24.00;66.00;;;;;;5056542;28;20171;-81
2023/04/21 12:36:11;;;;;;;7.40;5.47;;;24.60;66.10;;;;;;5073586;28;20205;-81
2023/04/21 12:38:38;;;;;;;6.40;5.50;;;25.20;63.60;;;;;;5074162;28;20179;-81